Time;durP1;ratioP1;P1;durP2;ratioP2;P2;SDS_P1;SDS_P2;PMS_P1;PMS_P2;Temp;Humidity;BMP_temperature;BMP_pressure;BME280_temperature;BME280_humidity;BME280_pressure;Samples;Min_cycle;Max_cycle;Signal;HPM_P1;HPM_P2
2023/09/01 00:01:29;;;;;;;8.13;2.05;;;21.50;96.70;;;;;;5048373;28;20043;-78
2023/09/01 00:04:17;;;;;;;5.03;2.20;;;21.40;96.70;;;;;;5064108;28;20230;-78
2023/09/01 00:06:45;;;;;;;5.07;2.17;;;21.40;96.70;;;;;;5030339;28;20577;-77
2023/09/01 00:09:13;;;;;;;7.10;1.95;;;21.40;96.70;;;;;;5065934;28;20139;-77
2023/09/01 00:11:42;;;;;;;4.22;1.77;;;21.40;96.70;;;;;;5066014;28;20044;-76
2023/09/01 00:14:10;;;;;;;7.60;2.20;;;21.30;96.70;;;;;;5050997;28;20040;-77
2023/09/01 00:16:38;;;;;;;4.60;1.92;;;21.30;96.70;;;;;;5065643;28;20862;-77
2023/09/01 00:19:06;;;;;;;5.30;1.90;;;21.40;96.70;;;;;;5048578;28;20136;-76
2023/09/01 00:21:36;;;;;;;4.63;2.10;;;21.40;96.70;;;;;;5068761;28;20094;-77
2023/09/01 00:24:05;;;;;;;5.47;1.83;;;21.50;96.70;;;;;;5033206;28;20048;-77
2023/09/01 00:26:34;;;;;;;6.30;2.22;;;21.40;96.70;;;;;;5050148;28;20048;-78
2023/09/01 00:29:02;;;;;;;4.40;1.90;;;21.30;96.70;;;;;;5049515;28;20048;-78
2023/09/01 00:31:32;;;;;;;4.15;1.80;;;21.30;96.70;;;;;;5027522;28;20526;-78
2023/09/01 00:34:00;;;;;;;4.32;2.13;;;21.20;96.70;;;;;;5024198;28;20040;-76
2023/09/01 00:36:28;;;;;;;5.05;2.25;;;21.20;96.70;;;;;;5023603;28;20048;-77
2023/09/01 00:38:58;;;;;;;5.57;2.08;;;21.00;96.70;;;;;;5045296;28;20049;-78
2023/09/01 00:41:26;;;;;;;7.78;2.50;;;20.90;96.70;;;;;;5024797;28;20061;-78
2023/09/01 00:43:55;;;;;;;5.97;2.00;;;20.90;96.70;;;;;;5025747;28;20040;-77
2023/09/01 00:46:24;;;;;;;5.75;2.55;;;20.80;96.70;;;;;;5027945;28;20526;-78
2023/09/01 00:48:52;;;;;;;5.65;2.33;;;20.80;96.70;;;;;;5041248;28;20547;-78
2023/09/01 00:51:20;;;;;;;6.07;2.05;;;20.90;96.70;;;;;;5023198;28;20485;-78
2023/09/01 00:53:49;;;;;;;3.72;2.00;;;20.90;96.70;;;;;;5023031;28;20044;-78
2023/09/01 00:56:19;;;;;;;4.72;1.95;;;20.80;96.70;;;;;;5025069;28;20041;-78
2023/09/01 00:58:47;;;;;;;4.53;2.20;;;20.80;96.70;;;;;;5027716;28;20053;-77
2023/09/01 01:01:16;;;;;;;7.15;2.08;;;20.70;96.70;;;;;;5026147;28;20037;-77
2023/09/01 01:03:44;;;;;;;4.32;1.73;;;20.70;96.70;;;;;;5022549;28;20147;-77
2023/09/01 01:06:22;;;;;;;5.88;2.10;;;20.70;96.70;;;;;;5025720;28;20176;-77
2023/09/01 01:09:01;;;;;;;4.43;2.47;;;20.80;96.70;;;;;;5005197;28;20127;-77
2023/09/01 01:11:39;;;;;;;8.13;2.53;;;20.80;96.70;;;;;;5026460;28;20804;-76
2023/09/01 01:14:15;;;;;;;4.28;2.03;;;20.90;96.70;;;;;;5026667;28;20053;-76
2023/09/01 01:16:43;;;;;;;4.38;1.85;;;20.80;96.70;;;;;;5024198;28;20056;-77
2023/09/01 01:19:32;;;;;;;8.75;2.30;;;20.80;96.70;;;;;;5024312;28;20044;-77
2023/09/01 01:22:04;;;;;;;8.50;2.60;;;20.90;96.70;;;;;;5023090;28;20048;-77
2023/09/01 01:24:35;;;;;;;5.07;2.28;;;20.90;96.70;;;;;;5023109;28;20053;-77
2023/09/01 01:27:04;;;;;;;7.22;2.35;;;20.90;96.70;;;;;;5023475;28;20053;-77
2023/09/01 01:29:32;;;;;;;4.32;2.13;;;20.80;96.70;;;;;;5024996;28;20742;-77
2023/09/01 01:32:00;;;;;;;6.30;2.08;;;20.80;96.70;;;;;;5007416;28;20068;-77
2023/09/01 01:34:36;;;;;;;6.10;2.13;;;20.80;96.70;;;;;;5025781;28;20037;-77
2023/09/01 01:37:11;;;;;;;5.38;1.98;;;20.70;96.70;;;;;;5027641;28;20132;-77
2023/09/01 01:39:45;;;;;;;5.00;2.03;;;20.80;96.70;;;;;;5024236;28;20080;-76
2023/09/01 01:42:16;;;;;;;4.18;2.08;;;20.70;96.70;;;;;;5023940;28;20052;-77
2023/09/01 01:44:48;;;;;;;5.40;2.35;;;20.70;96.70;;;;;;5010853;28;20049;-77
2023/09/01 01:47:17;;;;;;;6.32;2.55;;;20.60;96.70;;;;;;5024780;28;20976;-77
2023/09/01 01:49:45;;;;;;;6.53;2.03;;;20.70;96.70;;;;;;5028703;28;20556;-77
2023/09/01 01:52:14;;;;;;;8.45;2.10;;;20.70;96.70;;;;;;5024252;28;20049;-77
2023/09/01 01:54:43;;;;;;;3.53;2.10;;;20.70;96.70;;;;;;5025269;28;20048;-76
2023/09/01 01:57:14;;;;;;;5.40;2.58;;;20.60;96.70;;;;;;5023584;28;20202;-77
2023/09/01 01:59:43;;;;;;;6.82;2.60;;;20.70;96.70;;;;;;5044892;28;20063;-77
2023/09/01 02:02:11;;;;;;;4.40;2.00;;;20.50;96.70;;;;;;5040421;28;20160;-77
2023/09/01 02:04:39;;;;;;;4.85;2.22;;;20.30;96.70;;;;;;5023133;28;20056;-77
2023/09/01 02:07:08;;;;;;;6.60;1.95;;;20.30;96.70;;;;;;5040298;28;20046;-77
2023/09/01 02:09:36;;;;;;;5.95;2.10;;;20.40;96.70;;;;;;5027803;28;21782;-76
2023/09/01 02:12:06;;;;;;;6.03;2.38;;;20.50;96.70;;;;;;5013081;28;20046;-77
2023/09/01 02:14:35;;;;;;;4.88;2.10;;;20.60;96.70;;;;;;5023557;28;20045;-76
2023/09/01 02:17:05;;;;;;;7.63;2.20;;;20.50;96.70;;;;;;5024615;28;20136;-76
2023/09/01 02:19:36;;;;;;;4.85;2.55;;;20.50;96.70;;;;;;5027034;28;20049;-77
2023/09/01 02:22:05;;;;;;;15.43;2.90;;;20.30;96.70;;;;;;5025327;28;20045;-77
2023/09/01 02:24:34;;;;;;;6.55;2.50;;;20.20;96.70;;;;;;5024926;28;20037;-77
2023/09/01 02:27:04;;;;;;;7.30;2.47;;;20.30;96.70;;;;;;5007231;28;20480;-77
2023/09/01 02:29:35;;;;;;;4.13;1.75;;;20.40;96.70;;;;;;5027573;28;20041;-77
2023/09/01 02:32:03;;;;;;;5.97;2.33;;;20.50;96.70;;;;;;5023961;28;20755;-78
2023/09/01 02:34:32;;;;;;;3.75;1.98;;;20.40;96.70;;;;;;5022169;28;20048;-77
2023/09/01 02:37:01;;;;;;;5.93;2.22;;;20.30;96.70;;;;;;5042797;28;20137;-77
2023/09/01 02:39:29;;;;;;;8.18;2.15;;;20.30;96.70;;;;;;5023341;28;20033;-77
2023/09/01 02:42:00;;;;;;;4.22;2.50;;;20.30;96.70;;;;;;5023754;28;20144;-76
2023/09/01 02:44:28;;;;;;;5.40;2.20;;;20.30;96.70;;;;;;5028702;28;20048;-77
2023/09/01 02:46:58;;;;;;;5.13;2.30;;;20.30;96.70;;;;;;5027792;28;20053;-77
2023/09/01 02:49:26;;;;;;;3.80;2.15;;;20.30;96.70;;;;;;5031187;28;20041;-76
2023/09/01 02:51:56;;;;;;;6.00;1.80;;;20.30;96.70;;;;;;5028982;28;20042;-76
2023/09/01 02:54:24;;;;;;;4.35;1.85;;;20.20;96.70;;;;;;5030147;28;20049;-76
2023/09/01 02:56:52;;;;;;;3.08;1.80;;;20.30;96.70;;;;;;5027009;28;20041;-77
2023/09/01 02:59:20;;;;;;;4.88;1.88;;;20.20;96.70;;;;;;5028844;28;20102;-77
2023/09/01 03:01:49;;;;;;;5.32;1.83;;;20.10;96.70;;;;;;5047167;28;20044;-76
2023/09/01 03:04:20;;;;;;;6.35;1.90;;;20.10;96.70;;;;;;5028145;28;20057;-77
2023/09/01 03:06:48;;;;;;;4.40;1.85;;;20.10;96.70;;;;;;5026471;28;20045;-77
2023/09/01 03:09:17;;;;;;;5.78;2.00;;;20.10;96.70;;;;;;5029985;28;20149;-77
2023/09/01 03:11:45;;;;;;;6.57;2.08;;;20.00;96.70;;;;;;5025570;28;20045;-76
2023/09/01 03:14:13;;;;;;;4.35;2.00;;;20.10;96.70;;;;;;5026251;28;20049;-77
2023/09/01 03:16:43;;;;;;;5.05;1.58;;;20.10;96.70;;;;;;5024767;28;20045;-77
2023/09/01 03:19:11;;;;;;;4.18;1.80;;;20.20;96.70;;;;;;5026053;28;20624;-77
2023/09/01 03:21:41;;;;;;;4.55;1.70;;;20.20;96.70;;;;;;5025464;28;20298;-77
2023/09/01 03:24:10;;;;;;;4.82;1.75;;;20.20;96.70;;;;;;5010434;28;20053;-77
2023/09/01 03:26:38;;;;;;;4.72;1.85;;;20.00;96.70;;;;;;5027393;28;20633;-77
2023/09/01 03:29:06;;;;;;;7.50;2.33;;;20.00;96.70;;;;;;5023332;28;20045;-76
2023/09/01 03:31:34;;;;;;;6.03;2.10;;;20.10;96.70;;;;;;5044853;28;20048;-75
2023/09/01 03:34:03;;;;;;;4.30;1.77;;;20.00;96.70;;;;;;5048799;28;20118;-77
2023/09/01 03:36:32;;;;;;;6.05;1.80;;;19.90;96.70;;;;;;5067194;28;20123;-77
2023/09/01 03:39:01;;;;;;;5.00;1.80;;;19.90;96.70;;;;;;5030801;28;20052;-76
2023/09/01 03:41:29;;;;;;;4.75;1.90;;;19.90;96.70;;;;;;5050724;28;20039;-77
2023/09/01 03:43:57;;;;;;;3.83;1.80;;;19.80;96.70;;;;;;5047914;28;20047;-76
2023/09/01 03:46:25;;;;;;;3.88;1.58;;;19.80;96.70;;;;;;5069362;28;20043;-78
2023/09/01 03:48:53;;;;;;;5.13;1.80;;;19.80;96.70;;;;;;5064204;28;20044;-77
2023/09/01 03:51:22;;;;;;;5.20;1.73;;;19.80;96.70;;;;;;5048511;28;20032;-77
2023/09/01 03:53:51;;;;;;;5.03;1.73;;;19.80;96.70;;;;;;5050476;28;20163;-77
2023/09/01 03:56:22;;;;;;;5.55;1.95;;;19.80;96.70;;;;;;5048196;28;20036;-77
2023/09/01 03:58:50;;;;;;;8.48;2.22;;;19.80;96.70;;;;;;5068691;28;20044;-77
2023/09/01 04:01:18;;;;;;;6.35;1.92;;;19.80;96.70;;;;;;5046363;28;20120;-76
2023/09/01 04:03:48;;;;;;;6.43;1.90;;;19.80;96.70;;;;;;5047806;28;20041;-75
2023/09/01 04:06:16;;;;;;;4.47;2.25;;;19.80;96.70;;;;;;5046608;28;20423;-77
2023/09/01 04:08:44;;;;;;;6.93;2.25;;;19.70;96.70;;;;;;5065222;28;20044;-76
2023/09/01 04:11:12;;;;;;;4.30;1.90;;;19.70;96.70;;;;;;5036141;28;20040;-77
2023/09/01 04:13:42;;;;;;;4.28;1.85;;;19.70;96.70;;;;;;5047606;28;20058;-77
2023/09/01 04:16:11;;;;;;;5.68;1.88;;;19.70;96.70;;;;;;5047636;28;20140;-76
2023/09/01 04:18:39;;;;;;;4.65;1.80;;;19.60;96.70;;;;;;5046437;28;20074;-77
2023/09/01 04:21:07;;;;;;;3.28;1.80;;;19.60;96.70;;;;;;5047401;28;20605;-77
2023/09/01 04:23:39;;;;;;;4.38;1.90;;;19.50;96.70;;;;;;5066293;28;20406;-77
2023/09/01 04:26:12;;;;;;;5.78;1.83;;;19.60;96.70;;;;;;5049437;28;20822;-76
2023/09/01 04:28:44;;;;;;;4.85;2.08;;;19.60;96.70;;;;;;5046758;28;20055;-77
2023/09/01 04:31:15;;;;;;;5.72;1.77;;;19.60;96.70;;;;;;5046712;28;20969;-77
2023/09/01 04:33:45;;;;;;;6.45;2.10;;;19.60;96.70;;;;;;5048492;28;20048;-78
2023/09/01 04:36:13;;;;;;;4.13;1.85;;;19.60;96.70;;;;;;5067039;28;20252;-77
2023/09/01 04:38:41;;;;;;;4.80;2.20;;;19.60;96.70;;;;;;5045208;28;20182;-77
2023/09/01 04:41:09;;;;;;;5.82;2.60;;;19.60;96.70;;;;;;5049010;28;20210;-77
2023/09/01 04:43:38;;;;;;;5.88;2.80;;;19.60;96.70;;;;;;5064909;28;20512;-77
2023/09/01 04:46:09;;;;;;;6.63;2.42;;;19.60;96.70;;;;;;5046904;28;20040;-77
2023/09/01 04:48:37;;;;;;;6.63;2.95;;;19.60;96.70;;;;;;5048607;28;20120;-77
2023/09/01 04:51:05;;;;;;;7.80;2.85;;;19.60;96.70;;;;;;5050429;28;20075;-79
2023/09/01 04:53:33;;;;;;;6.18;2.40;;;19.50;96.70;;;;;;5046416;28;20497;-77
2023/09/01 04:56:01;;;;;;;9.25;3.20;;;19.50;96.70;;;;;;5045920;28;20064;-77
2023/09/01 04:58:29;;;;;;;7.35;2.70;;;19.50;96.70;;;;;;5046657;28;20098;-78
2023/09/01 05:00:57;;;;;;;6.47;2.78;;;19.60;96.70;;;;;;5038429;28;20067;-77
2023/09/01 05:03:27;;;;;;;6.03;2.72;;;19.60;96.70;;;;;;5065740;28;20047;-77
2023/09/01 05:05:56;;;;;;;8.38;2.58;;;19.60;96.70;;;;;;5047344;28;20045;-77
2023/09/01 05:08:25;;;;;;;4.95;2.55;;;19.60;96.70;;;;;;5043091;28;20049;-78
2023/09/01 05:10:56;;;;;;;6.28;2.22;;;19.60;96.70;;;;;;5065387;28;20037;-77
2023/09/01 05:13:26;;;;;;;6.22;2.83;;;19.60;96.70;;;;;;5068518;28;20050;-77
2023/09/01 05:15:54;;;;;;;9.27;2.80;;;19.60;96.70;;;;;;5064288;28;20060;-78
2023/09/01 05:18:22;;;;;;;7.43;2.75;;;19.60;96.70;;;;;;5050636;28;20138;-77
2023/09/01 05:20:53;;;;;;;3.92;2.53;;;19.60;96.70;;;;;;5063959;28;21887;-77
2023/09/01 05:23:25;;;;;;;6.70;2.85;;;19.60;96.70;;;;;;5046148;28;20041;-77
2023/09/01 05:25:53;;;;;;;7.22;2.65;;;19.60;96.70;;;;;;5064541;28;20520;-77
2023/09/01 05:28:21;;;;;;;8.63;3.05;;;19.50;96.70;;;;;;5046251;28;20052;-77
2023/09/01 05:30:50;;;;;;;6.45;2.90;;;19.50;96.70;;;;;;5063063;28;20048;-77
2023/09/01 05:33:18;;;;;;;4.82;2.95;;;19.50;96.70;;;;;;5043931;28;20743;-76
2023/09/01 05:35:46;;;;;;;7.43;2.88;;;19.40;96.70;;;;;;5044675;28;20778;-78
2023/09/01 05:38:15;;;;;;;7.93;3.28;;;19.40;96.70;;;;;;5043950;28;20052;-77
2023/09/01 05:40:44;;;;;;;4.88;2.83;;;19.60;96.70;;;;;;5044089;28;20980;-77
2023/09/01 05:43:17;;;;;;;8.77;3.30;;;19.70;96.70;;;;;;5045249;28;20040;-77
2023/09/01 05:45:45;;;;;;;6.47;3.55;;;19.80;96.70;;;;;;5060589;28;20549;-76
2023/09/01 05:48:14;;;;;;;7.60;3.13;;;19.90;96.70;;;;;;5040193;28;20140;-77
2023/09/01 05:50:43;;;;;;;7.90;4.20;;;19.90;96.70;;;;;;5044948;28;20413;-77
2023/09/01 05:53:16;;;;;;;11.35;4.28;;;19.90;96.70;;;;;;5033667;28;20098;-80
2023/09/01 05:55:44;;;;;;;9.88;4.60;;;19.90;96.70;;;;;;5045868;28;20052;-79
2023/09/01 05:58:12;;;;;;;7.45;4.40;;;19.80;96.70;;;;;;5049728;28;20529;-80
2023/09/01 06:00:41;;;;;;;15.35;5.18;;;19.80;96.70;;;;;;5042582;28;20049;-79
2023/09/01 06:03:08;;;;;;;9.48;4.38;;;19.80;96.70;;;;;;5023168;28;20045;-79
2023/09/01 06:05:37;;;;;;;8.00;4.20;;;19.90;96.70;;;;;;5043443;28;20053;-79
2023/09/01 06:08:05;;;;;;;9.45;4.30;;;19.90;96.70;;;;;;5045417;28;20528;-79
2023/09/01 06:10:35;;;;;;;8.48;3.58;;;19.90;96.70;;;;;;5046638;28;20587;-79
2023/09/01 06:13:03;;;;;;;7.68;3.55;;;19.90;96.70;;;;;;5048137;28;20068;-78
2023/09/01 06:15:31;;;;;;;5.20;2.80;;;19.90;96.70;;;;;;5046385;28;20033;-78
2023/09/01 06:17:59;;;;;;;7.45;2.80;;;20.00;96.70;;;;;;5029258;28;20536;-73
2023/09/01 06:20:28;;;;;;;7.15;3.15;;;20.00;96.70;;;;;;5027331;28;20053;-74
2023/09/01 06:22:56;;;;;;;4.93;2.88;;;19.90;96.70;;;;;;5037485;28;20080;-74
2023/09/01 06:25:24;;;;;;;6.20;2.35;;;20.00;96.70;;;;;;5042465;28;20154;-77
2023/09/01 06:27:54;;;;;;;5.65;2.47;;;20.00;96.70;;;;;;5049320;28;20495;-73
2023/09/01 06:30:23;;;;;;;5.82;2.88;;;20.10;96.70;;;;;;5041862;28;20053;-72
2023/09/01 06:32:51;;;;;;;8.68;2.92;;;20.10;96.70;;;;;;5046139;28;20045;-72
2023/09/01 06:35:19;;;;;;;7.78;2.75;;;20.10;96.70;;;;;;5031737;28;20525;-72
2023/09/01 06:37:47;;;;;;;6.88;3.22;;;20.20;96.70;;;;;;5036962;28;20419;-72
2023/09/01 06:40:15;;;;;;;7.18;2.70;;;20.30;96.70;;;;;;5042317;28;20045;-73
2023/09/01 06:42:43;;;;;;;8.38;3.10;;;20.40;96.70;;;;;;5046047;28;20037;-72
2023/09/01 06:45:13;;;;;;;6.47;3.25;;;20.40;96.70;;;;;;5043497;28;20040;-73
2023/09/01 06:47:41;;;;;;;8.85;3.65;;;20.40;96.70;;;;;;5038995;28;20143;-73
2023/09/01 06:50:09;;;;;;;8.73;3.97;;;20.30;96.70;;;;;;5032798;28;20418;-72
2023/09/01 06:52:37;;;;;;;10.52;4.05;;;20.30;96.70;;;;;;5045291;28;20143;-73
2023/09/01 06:55:06;;;;;;;11.80;4.43;;;20.40;96.70;;;;;;5043829;28;20075;-73
2023/09/01 06:57:34;;;;;;;9.13;5.22;;;20.40;96.70;;;;;;5044880;28;20140;-73
2023/09/01 07:00:03;;;;;;;12.10;5.57;;;20.50;96.70;;;;;;5027056;28;20935;-73
2023/09/01 07:02:33;;;;;;;8.88;5.47;;;20.50;96.70;;;;;;5041069;28;20041;-73
2023/09/01 07:05:02;;;;;;;8.27;5.63;;;20.60;96.70;;;;;;5031329;28;20092;-73
2023/09/01 07:07:30;;;;;;;9.23;5.72;;;20.60;96.70;;;;;;5025665;28;20124;-72
2023/09/01 07:09:58;;;;;;;13.57;7.22;;;20.70;96.70;;;;;;5026180;28;20091;-74
2023/09/01 07:12:26;;;;;;;13.25;8.20;;;20.80;96.70;;;;;;5027640;28;20046;-73
2023/09/01 07:14:54;;;;;;;15.85;8.85;;;20.90;96.70;;;;;;5032551;28;20041;-74
2023/09/01 07:17:22;;;;;;;10.10;8.02;;;20.90;96.70;;;;;;5038208;28;20534;-73
2023/09/01 07:19:51;;;;;;;11.88;8.45;;;20.90;96.70;;;;;;5043550;28;20055;-73
2023/09/01 07:22:19;;;;;;;11.68;5.82;;;20.90;96.70;;;;;;5043380;28;20052;-73
2023/09/01 07:24:47;;;;;;;10.15;6.13;;;21.00;96.70;;;;;;5036571;28;20091;-73
2023/09/01 07:27:15;;;;;;;8.27;5.90;;;21.00;96.70;;;;;;5040210;28;20056;-73
2023/09/01 07:29:48;;;;;;;8.85;5.47;;;21.10;96.70;;;;;;5039977;28;20319;-72
2023/09/01 07:32:17;;;;;;;9.35;5.47;;;21.10;96.70;;;;;;5066996;28;20048;-73
2023/09/01 07:34:47;;;;;;;8.85;5.20;;;21.20;96.70;;;;;;5065851;28;20047;-73
2023/09/01 07:37:16;;;;;;;8.13;4.05;;;21.30;96.70;;;;;;5065376;28;20147;-73
2023/09/01 07:39:44;;;;;;;6.55;4.15;;;21.40;96.70;;;;;;5063675;28;20789;-72
2023/09/01 07:42:12;;;;;;;8.10;4.03;;;21.40;96.70;;;;;;5048154;28;20475;-73
2023/09/01 07:44:41;;;;;;;12.40;5.75;;;21.40;96.70;;;;;;5054519;28;20074;-72
2023/09/01 07:47:09;;;;;;;14.10;4.43;;;21.50;96.70;;;;;;5031145;28;20620;-72
2023/09/01 07:49:38;;;;;;;13.00;4.63;;;21.50;96.70;;;;;;5043975;28;20105;-73
2023/09/01 07:52:06;;;;;;;7.15;4.22;;;21.60;96.70;;;;;;5047485;28;20041;-73
2023/09/01 07:54:35;;;;;;;9.32;4.32;;;21.70;96.70;;;;;;5041165;28;20072;-73
2023/09/01 07:57:03;;;;;;;10.40;4.43;;;21.80;96.70;;;;;;5044043;28;20126;-73
2023/09/01 07:59:31;;;;;;;9.18;4.68;;;21.90;96.70;;;;;;5046526;28;20396;-73
2023/09/01 08:01:59;;;;;;;9.15;4.50;;;21.90;96.70;;;;;;5044007;28;20053;-73
2023/09/01 08:04:27;;;;;;;8.75;4.15;;;21.90;96.70;;;;;;5042052;28;20576;-73
2023/09/01 08:06:55;;;;;;;6.80;3.90;;;21.90;96.70;;;;;;5031076;28;20056;-73
2023/09/01 08:09:23;;;;;;;9.23;3.95;;;22.00;96.70;;;;;;5047321;28;20048;-73
2023/09/01 08:11:52;;;;;;;10.98;4.45;;;22.10;96.70;;;;;;5040084;28;20060;-73
2023/09/01 08:14:21;;;;;;;9.30;3.78;;;22.20;96.70;;;;;;5047299;28;20056;-73
2023/09/01 08:16:49;;;;;;;9.15;4.22;;;22.20;96.70;;;;;;5065539;28;20040;-73
2023/09/01 08:19:17;;;;;;;9.65;4.40;;;22.30;96.70;;;;;;5047088;28;20114;-73
2023/09/01 08:21:45;;;;;;;6.90;3.92;;;22.40;96.70;;;;;;5030781;28;20137;-73
2023/09/01 08:24:13;;;;;;;8.70;4.00;;;22.50;96.70;;;;;;5047454;28;20051;-73
2023/09/01 08:26:41;;;;;;;9.15;3.30;;;22.50;96.70;;;;;;5045432;28;20047;-73
2023/09/01 08:29:10;;;;;;;9.05;3.88;;;22.50;96.70;;;;;;5044463;28;20051;-73
2023/09/01 08:31:38;;;;;;;7.45;3.03;;;22.60;96.70;;;;;;5046950;28;20072;-73
2023/09/01 08:34:10;;;;;;;7.63;3.60;;;22.60;96.70;;;;;;5056334;28;20127;-73
2023/09/01 08:36:38;;;;;;;9.43;3.08;;;22.60;96.70;;;;;;5047438;28;20432;-72
2023/09/01 08:39:07;;;;;;;6.90;2.58;;;22.70;96.70;;;;;;5037535;28;20041;-73
2023/09/01 08:41:39;;;;;;;10.13;3.05;;;22.70;96.70;;;;;;5062266;28;20036;-73
2023/09/01 08:44:10;;;;;;;5.90;2.58;;;22.80;96.70;;;;;;5043467;28;20106;-74
2023/09/01 08:46:40;;;;;;;5.93;2.65;;;22.90;96.70;;;;;;5050020;28;20506;-74
2023/09/01 08:49:08;;;;;;;5.65;2.35;;;23.10;96.70;;;;;;5046107;28;20044;-73
2023/09/01 08:51:41;;;;;;;6.45;2.50;;;23.10;96.70;;;;;;5044516;28;20495;-73
2023/09/01 08:54:09;;;;;;;4.95;2.00;;;23.30;96.70;;;;;;5064105;28;20051;-73
2023/09/01 08:56:37;;;;;;;6.95;2.78;;;23.30;96.70;;;;;;5064289;28;20445;-72
2023/09/01 08:59:05;;;;;;;7.13;2.60;;;23.30;96.70;;;;;;5049631;28;20143;-72
2023/09/01 09:01:35;;;;;;;7.10;2.08;;;23.30;96.70;;;;;;5047324;28;20498;-73
2023/09/01 09:04:04;;;;;;;6.72;2.20;;;23.40;96.70;;;;;;5046432;28;20053;-73
2023/09/01 09:06:32;;;;;;;7.60;2.65;;;23.40;96.70;;;;;;5046195;28;20036;-73
2023/09/01 09:09:05;;;;;;;5.60;2.35;;;23.60;96.70;;;;;;5063427;28;20087;-73
2023/09/01 09:11:33;;;;;;;10.60;2.42;;;23.70;96.70;;;;;;5043045;28;20562;-73
2023/09/01 09:14:01;;;;;;;8.95;2.10;;;23.60;96.70;;;;;;5062367;28;20036;-73
2023/09/01 09:16:50;;;;;;;9.60;2.20;;;23.60;96.70;;;;;;5024395;28;20044;-73
2023/09/01 09:19:19;;;;;;;7.60;2.05;;;23.60;96.70;;;;;;5045504;28;20414;-73
2023/09/01 09:21:47;;;;;;;9.30;2.50;;;23.70;96.70;;;;;;5064326;28;20068;-72
2023/09/01 09:24:33;;;;;;;9.30;1.88;;;23.90;96.70;;;;;;5068922;28;20097;-73
2023/09/01 09:27:03;;;;;;;5.77;2.20;;;24.00;96.70;;;;;;5057796;28;20068;-73
2023/09/01 09:29:38;;;;;;;5.53;1.83;;;24.00;96.70;;;;;;5045751;28;20049;-73
2023/09/01 09:32:21;;;;;;;8.40;2.30;;;24.10;96.70;;;;;;5048804;28;20044;-73
2023/09/01 09:35:07;;;;;;;7.85;2.38;;;24.30;96.70;;;;;;5036146;28;20044;-73
2023/09/01 09:37:35;;;;;;;9.07;2.45;;;24.40;96.70;;;;;;5051408;28;20044;-72
2023/09/01 09:40:12;;;;;;;4.88;2.10;;;24.60;96.70;;;;;;5045514;28;20043;-73
2023/09/01 09:42:43;;;;;;;8.23;2.80;;;24.70;96.70;;;;;;5053933;28;20124;-73
2023/09/01 09:45:24;;;;;;;7.63;2.10;;;24.80;96.70;;;;;;5057343;28;20070;-73
2023/09/01 09:47:54;;;;;;;7.72;2.28;;;24.90;96.70;;;;;;5042522;28;20049;-73
2023/09/01 09:50:24;;;;;;;6.50;2.13;;;25.10;96.70;;;;;;5045072;28;20044;-73
2023/09/01 09:52:59;;;;;;;6.18;1.88;;;25.30;96.70;;;;;;5044149;28;20513;-73
2023/09/01 09:55:28;;;;;;;7.93;1.73;;;25.50;96.70;;;;;;5063902;28;20529;-72
2023/09/01 09:58:04;;;;;;;7.55;2.03;;;25.50;96.70;;;;;;5045637;28;20127;-74
2023/09/01 10:00:35;;;;;;;8.68;2.42;;;25.50;96.70;;;;;;5045802;28;20053;-73
2023/09/01 10:03:06;;;;;;;5.97;2.33;;;25.60;96.70;;;;;;5044034;28;20058;-74
2023/09/01 10:05:35;;;;;;;7.55;2.30;;;25.70;96.70;;;;;;5061019;28;20048;-74
2023/09/01 10:08:09;;;;;;;5.85;1.95;;;25.70;96.70;;;;;;5062781;28;20051;-73
2023/09/01 10:10:37;;;;;;;6.18;2.50;;;25.80;96.70;;;;;;5044822;28;20045;-73
2023/09/01 10:13:07;;;;;;;6.72;2.15;;;25.60;96.70;;;;;;5063279;28;20119;-73
2023/09/01 10:15:36;;;;;;;5.50;2.47;;;25.60;96.70;;;;;;5053797;28;20052;-73
2023/09/01 10:18:10;;;;;;;8.15;2.30;;;25.50;96.70;;;;;;5045106;28;20052;-73
2023/09/01 10:20:42;;;;;;;5.20;2.08;;;25.50;96.70;;;;;;5044800;28;20060;-72
2023/09/01 10:23:11;;;;;;;4.78;1.88;;;25.50;96.70;;;;;;5044970;28;20136;-73
2023/09/01 10:25:39;;;;;;;4.57;1.95;;;25.30;96.70;;;;;;5028963;28;20041;-73
2023/09/01 10:28:10;;;;;;;5.15;1.98;;;25.50;96.70;;;;;;5028921;28;20533;-73
2023/09/01 10:30:40;;;;;;;7.22;1.95;;;25.60;96.70;;;;;;5028569;28;20060;-73
2023/09/01 10:33:14;;;;;;;4.80;1.90;;;25.80;96.70;;;;;;5044504;28;20116;-73
2023/09/01 10:35:47;;;;;;;5.38;1.90;;;26.10;96.70;;;;;;5056762;28;20047;-74
2023/09/01 10:38:20;;;;;;;5.35;1.63;;;26.30;96.70;;;;;;5041222;28;20052;-74
2023/09/01 10:40:52;;;;;;;3.42;1.83;;;26.40;96.70;;;;;;5043364;28;20423;-73
2023/09/01 10:43:51;;;;;;;5.63;1.58;;;26.40;96.70;;;;;;5043265;28;20072;-73
2023/09/01 10:46:26;;;;;;;5.10;1.90;;;26.50;96.70;;;;;;5050498;28;20041;-73
2023/09/01 10:48:57;;;;;;;7.03;1.98;;;26.60;96.70;;;;;;5044615;28;20044;-73
2023/09/01 10:51:26;;;;;;;4.00;1.48;;;26.70;96.70;;;;;;5061242;28;20487;-73
2023/09/01 10:54:01;;;;;;;5.78;1.67;;;26.70;96.70;;;;;;5048618;28;20044;-73
2023/09/01 10:56:31;;;;;;;5.05;1.88;;;26.90;96.70;;;;;;5044972;28;20155;-72
2023/09/01 10:58:59;;;;;;;4.15;1.45;;;26.90;96.70;;;;;;5063385;28;20048;-73
2023/09/01 11:01:35;;;;;;;4.75;1.50;;;27.00;96.70;;;;;;5022780;28;20084;-73
2023/09/01 11:04:30;;;;;;;4.93;1.67;;;27.00;96.70;;;;;;5047085;28;20124;-73
2023/09/01 11:07:06;;;;;;;4.60;2.08;;;27.20;96.70;;;;;;5065738;28;20110;-73
2023/09/01 11:09:51;;;;;;;5.28;1.95;;;27.40;96.70;;;;;;5024833;28;20602;-73
2023/09/01 11:12:31;;;;;;;3.70;1.48;;;27.20;96.70;;;;;;5067058;28;20067;-73
2023/09/01 11:15:03;;;;;;;4.68;1.50;;;27.00;96.70;;;;;;5044935;28;20052;-73
2023/09/01 11:17:49;;;;;;;3.42;1.88;;;26.60;96.70;;;;;;5048654;28;20047;-73
2023/09/01 11:20:28;;;;;;;5.05;1.63;;;26.60;96.70;;;;;;5048266;28;20521;-74
2023/09/01 11:22:59;;;;;;;4.68;1.60;;;26.80;96.70;;;;;;5047438;28;20048;-75
2023/09/01 11:25:28;;;;;;;5.97;1.85;;;27.10;96.70;;;;;;5067933;28;20071;-73
2023/09/01 11:27:56;;;;;;;4.25;1.75;;;27.20;96.70;;;;;;5048904;28;20147;-73
2023/09/01 11:30:24;;;;;;;3.65;2.28;;;27.50;96.70;;;;;;5065999;28;20344;-73
2023/09/01 11:32:52;;;;;;;3.25;1.50;;;27.80;96.70;;;;;;5048432;28;20056;-72
2023/09/01 11:35:23;;;;;;;2.30;1.30;;;27.80;96.70;;;;;;5047354;28;20693;-73
2023/09/01 11:37:51;;;;;;;6.72;1.63;;;28.00;96.70;;;;;;5048336;28;20040;-73
2023/09/01 11:40:20;;;;;;;4.68;1.70;;;27.80;96.70;;;;;;5044868;28;20702;-73
2023/09/01 11:42:51;;;;;;;4.68;1.65;;;27.90;96.70;;;;;;5053484;28;20566;-72
2023/09/01 11:45:19;;;;;;;4.95;1.55;;;28.00;96.70;;;;;;5048272;28;20048;-73
2023/09/01 11:47:51;;;;;;;6.40;1.88;;;28.00;96.70;;;;;;5065361;28;20072;-72
2023/09/01 11:50:20;;;;;;;6.05;2.13;;;28.20;96.70;;;;;;5045058;28;20388;-74
2023/09/01 11:52:57;;;;;;;4.80;1.63;;;28.20;96.70;;;;;;5029849;28;20055;-73
2023/09/01 11:55:32;;;;;;;4.40;1.83;;;28.30;96.70;;;;;;5065746;28;20094;-74
2023/09/01 11:58:00;;;;;;;3.75;1.73;;;28.40;96.70;;;;;;5047000;28;20413;-72
2023/09/01 12:00:29;;;;;;;3.28;1.50;;;28.50;96.70;;;;;;5029482;28;20051;-75
2023/09/01 12:02:58;;;;;;;7.00;2.00;;;28.70;96.70;;;;;;5030447;28;20040;-74
2023/09/01 12:05:31;;;;;;;4.75;2.08;;;28.80;96.70;;;;;;5050996;28;20040;-73
2023/09/01 12:08:02;;;;;;;4.55;1.60;;;28.30;96.70;;;;;;5043855;28;20072;-73
2023/09/01 12:10:31;;;;;;;6.28;1.85;;;28.30;96.70;;;;;;5055453;28;20044;-74
2023/09/01 12:13:08;;;;;;;4.93;1.70;;;28.40;96.70;;;;;;5065140;28;20053;-73
2023/09/01 12:15:56;;;;;;;4.03;1.73;;;28.40;96.70;;;;;;5047235;28;20058;-75
2023/09/01 12:18:33;;;;;;;6.03;1.88;;;28.30;96.70;;;;;;5046099;28;20550;-73
2023/09/01 12:21:03;;;;;;;7.22;2.22;;;28.30;96.70;;;;;;5046750;28;20094;-76
2023/09/01 12:23:34;;;;;;;3.80;1.45;;;28.40;96.70;;;;;;5046688;28;20040;-75
2023/09/01 12:26:03;;;;;;;6.63;1.73;;;28.50;96.70;;;;;;5049324;28;20041;-74
2023/09/01 12:28:33;;;;;;;3.72;1.60;;;28.60;96.70;;;;;;5045135;28;20040;-74
2023/09/01 12:31:03;;;;;;;3.65;1.50;;;28.50;96.70;;;;;;5043728;28;20131;-75
2023/09/01 12:46:11;;;;;;;2.85;1.27;;;28.80;96.70;;;;;;5058452;28;20041;-73
2023/09/01 12:48:39;;;;;;;3.63;1.58;;;28.90;96.70;;;;;;5063628;28;20060;-76
2023/09/01 12:51:07;;;;;;;3.75;1.80;;;29.20;96.70;;;;;;5029449;28;20063;-76
2023/09/01 12:53:35;;;;;;;4.20;1.70;;;29.20;96.70;;;;;;5042633;28;20033;-76
2023/09/01 12:56:03;;;;;;;3.72;1.55;;;29.20;96.70;;;;;;5046028;28;20044;-76
2023/09/01 12:58:31;;;;;;;6.55;1.42;;;29.20;96.70;;;;;;5045273;28;20521;-72
2023/09/01 13:01:03;;;;;;;3.50;1.75;;;29.10;96.70;;;;;;5056209;28;20044;-74
2023/09/01 13:03:32;;;;;;;3.42;1.50;;;29.20;96.70;;;;;;5046317;28;20049;-74
2023/09/01 13:06:07;;;;;;;4.55;1.85;;;29.10;96.70;;;;;;5046192;28;20052;-73
2023/09/01 13:08:35;;;;;;;3.67;1.42;;;28.70;96.70;;;;;;5062543;28;20052;-72
2023/09/01 13:11:07;;;;;;;3.45;1.48;;;28.70;96.70;;;;;;5062983;28;20109;-72
2023/09/01 13:13:36;;;;;;;3.90;1.55;;;28.90;96.70;;;;;;5052729;28;20048;-73